sensor_id;sensor_type;location;lat;lon;timestamp;temperature;humidity
1626;DHT22;806;48.770;9.156;2023-06-22T00:01:17;23.30;1.00
1626;DHT22;806;48.770;9.156;2023-06-22T00:03:44;23.20;1.00
1626;DHT22;806;48.770;9.156;2023-06-22T00:06:11;23.30;1.00
1626;DHT22;806;48.770;9.156;2023-06-22T00:08:38;23.30;1.00
1626;DHT22;806;48.770;9.156;2023-06-22T00:11:07;23.30;1.00
1626;DHT22;806;48.770;9.156;2023-06-22T00:13:34;23.30;1.00
1626;DHT22;806;48.770;9.156;2023-06-22T00:16:01;23.20;1.00
1626;DHT22;806;48.770;9.156;2023-06-22T00:18:28;23.30;1.00
1626;DHT22;806;48.770;9.156;2023-06-22T00:20:56;23.30;1.00
1626;DHT22;806;48.770;9.156;2023-06-22T00:23:26;23.20;1.00
1626;DHT22;806;48.770;9.156;2023-06-22T00:25:53;23.20;1.00
1626;DHT22;806;48.770;9.156;2023-06-22T00:28:21;23.20;1.00
1626;DHT22;806;48.770;9.156;2023-06-22T00:30:48;23.20;1.00
1626;DHT22;806;48.770;9.156;2023-06-22T00:33:16;23.20;1.00
1626;DHT22;806;48.770;9.156;2023-06-22T00:35:43;23.20;1.00
1626;DHT22;806;48.770;9.156;2023-06-22T00:38:10;23.10;1.00
1626;DHT22;806;48.770;9.156;2023-06-22T00:40:37;23.10;1.00
1626;DHT22;806;48.770;9.156;2023-06-22T00:43:04;23.10;1.00
1626;DHT22;806;48.770;9.156;2023-06-22T00:45:33;23.20;1.00
1626;DHT22;806;48.770;9.156;2023-06-22T00:48:00;23.10;1.00
1626;DHT22;806;48.770;9.156;2023-06-22T00:50:29;23.00;1.00
1626;DHT22;806;48.770;9.156;2023-06-22T00:53:00;23.00;1.00
1626;DHT22;806;48.770;9.156;2023-06-22T00:55:29;23.00;1.00
1626;DHT22;806;48.770;9.156;2023-06-22T00:57:56;23.00;1.00
1626;DHT22;806;48.770;9.156;2023-06-22T01:00:24;23.00;1.00
1626;DHT22;806;48.770;9.156;2023-06-22T01:02:53;22.90;1.00
1626;DHT22;806;48.770;9.156;2023-06-22T01:05:21;23.00;1.00
1626;DHT22;806;48.770;9.156;2023-06-22T01:08:05;23.00;1.00
1626;DHT22;806;48.770;9.156;2023-06-22T01:10:37;23.00;1.00
1626;DHT22;806;48.770;9.156;2023-06-22T01:13:10;22.90;1.00
1626;DHT22;806;48.770;9.156;2023-06-22T01:15:45;22.90;1.00
1626;DHT22;806;48.770;9.156;2023-06-22T01:18:17;23.00;1.00
1626;DHT22;806;48.770;9.156;2023-06-22T01:20:45;23.00;1.00
1626;DHT22;806;48.770;9.156;2023-06-22T01:23:27;22.90;1.00
1626;DHT22;806;48.770;9.156;2023-06-22T01:26:02;22.90;1.00
1626;DHT22;806;48.770;9.156;2023-06-22T01:28:45;22.90;1.00
1626;DHT22;806;48.770;9.156;2023-06-22T01:31:14;22.90;1.00
1626;DHT22;806;48.770;9.156;2023-06-22T01:33:44;22.90;1.00
1626;DHT22;806;48.770;9.156;2023-06-22T01:36:13;22.80;1.00
1626;DHT22;806;48.770;9.156;2023-06-22T01:38:42;22.80;1.00
1626;DHT22;806;48.770;9.156;2023-06-22T01:41:10;22.70;1.00
1626;DHT22;806;48.770;9.156;2023-06-22T01:43:39;22.70;1.00
1626;DHT22;806;48.770;9.156;2023-06-22T01:46:07;22.50;1.00
1626;DHT22;806;48.770;9.156;2023-06-22T01:48:35;22.30;1.00
1626;DHT22;806;48.770;9.156;2023-06-22T01:51:02;22.10;5.80
1626;DHT22;806;48.770;9.156;2023-06-22T01:53:29;22.10;15.90
1626;DHT22;806;48.770;9.156;2023-06-22T01:55:57;22.10;17.60
1626;DHT22;806;48.770;9.156;2023-06-22T01:58:26;22.00;23.60
1626;DHT22;806;48.770;9.156;2023-06-22T02:00:58;22.00;23.20
1626;DHT22;806;48.770;9.156;2023-06-22T02:03:31;22.20;15.00
1626;DHT22;806;48.770;9.156;2023-06-22T02:06:04;22.20;5.40
1626;DHT22;806;48.770;9.156;2023-06-22T02:08:36;22.30;1.00
1626;DHT22;806;48.770;9.156;2023-06-22T02:11:04;22.30;1.00
1626;DHT22;806;48.770;9.156;2023-06-22T02:13:33;22.30;1.00
1626;DHT22;806;48.770;9.156;2023-06-22T02:16:02;22.30;1.00
1626;DHT22;806;48.770;9.156;2023-06-22T02:18:30;22.30;1.00
1626;DHT22;806;48.770;9.156;2023-06-22T02:20:57;22.30;1.00
1626;DHT22;806;48.770;9.156;2023-06-22T02:23:24;22.30;1.00
1626;DHT22;806;48.770;9.156;2023-06-22T02:25:51;22.30;1.00
1626;DHT22;806;48.770;9.156;2023-06-22T02:28:18;22.30;1.00
1626;DHT22;806;48.770;9.156;2023-06-22T02:30:46;22.20;1.00
1626;DHT22;806;48.770;9.156;2023-06-22T02:33:14;22.20;1.00
1626;DHT22;806;48.770;9.156;2023-06-22T02:35:41;22.10;7.10
1626;DHT22;806;48.770;9.156;2023-06-22T02:38:11;22.10;17.00
1626;DHT22;806;48.770;9.156;2023-06-22T02:40:38;22.10;15.30
1626;DHT22;806;48.770;9.156;2023-06-22T02:43:05;22.10;17.50
1626;DHT22;806;48.770;9.156;2023-06-22T02:45:32;22.10;20.70
1626;DHT22;806;48.770;9.156;2023-06-22T02:47:59;22.10;18.40
1626;DHT22;806;48.770;9.156;2023-06-22T02:50:27;22.00;19.20
1626;DHT22;806;48.770;9.156;2023-06-22T02:52:54;21.90;25.30
1626;DHT22;806;48.770;9.156;2023-06-22T02:55:21;22.00;30.00
1626;DHT22;806;48.770;9.156;2023-06-22T02:57:49;21.90;23.80
1626;DHT22;806;48.770;9.156;2023-06-22T03:00:19;21.90;25.60
1626;DHT22;806;48.770;9.156;2023-06-22T03:02:48;21.80;31.40
1626;DHT22;806;48.770;9.156;2023-06-22T03:05:16;21.80;35.90
1626;DHT22;806;48.770;9.156;2023-06-22T03:07:45;21.80;39.20
1626;DHT22;806;48.770;9.156;2023-06-22T03:10:13;21.70;40.20
1626;DHT22;806;48.770;9.156;2023-06-22T03:12:41;21.70;45.50
1626;DHT22;806;48.770;9.156;2023-06-22T03:15:10;21.70;51.20
1626;DHT22;806;48.770;9.156;2023-06-22T03:17:38;21.80;46.40
1626;DHT22;806;48.770;9.156;2023-06-22T03:20:08;21.80;42.20
1626;DHT22;806;48.770;9.156;2023-06-22T03:22:36;21.70;47.00
1626;DHT22;806;48.770;9.156;2023-06-22T03:25:05;21.50;57.90
1626;DHT22;806;48.770;9.156;2023-06-22T03:27:36;21.40;72.80
1626;DHT22;806;48.770;9.156;2023-06-22T03:30:04;21.40;73.90
1626;DHT22;806;48.770;9.156;2023-06-22T03:32:31;21.50;72.80
1626;DHT22;806;48.770;9.156;2023-06-22T03:34:58;21.40;68.90
1626;DHT22;806;48.770;9.156;2023-06-22T03:37:25;21.60;59.80
1626;DHT22;806;48.770;9.156;2023-06-22T03:39:52;21.60;52.50
1626;DHT22;806;48.770;9.156;2023-06-22T03:42:21;21.60;52.20
1626;DHT22;806;48.770;9.156;2023-06-22T03:44:48;21.60;49.10
1626;DHT22;806;48.770;9.156;2023-06-22T03:47:15;21.50;52.30
1626;DHT22;806;48.770;9.156;2023-06-22T03:49:42;21.40;65.30
1626;DHT22;806;48.770;9.156;2023-06-22T03:52:09;21.30;74.30
1626;DHT22;806;48.770;9.156;2023-06-22T03:54:36;21.40;75.50
1626;DHT22;806;48.770;9.156;2023-06-22T03:57:04;21.50;54.90
1626;DHT22;806;48.770;9.156;2023-06-22T03:59:32;21.60;48.70
1626;DHT22;806;48.770;9.156;2023-06-22T04:01:59;21.60;37.10
1626;DHT22;806;48.770;9.156;2023-06-22T04:04:26;21.50;36.50
1626;DHT22;806;48.770;9.156;2023-06-22T04:06:54;21.40;50.40
1626;DHT22;806;48.770;9.156;2023-06-22T04:09:21;21.50;54.90
1626;DHT22;806;48.770;9.156;2023-06-22T04:11:48;21.60;48.40
1626;DHT22;806;48.770;9.156;2023-06-22T04:14:15;21.60;35.70
1626;DHT22;806;48.770;9.156;2023-06-22T04:16:43;21.70;28.80
1626;DHT22;806;48.770;9.156;2023-06-22T04:19:10;21.70;27.00
1626;DHT22;806;48.770;9.156;2023-06-22T04:21:43;21.70;29.60
1626;DHT22;806;48.770;9.156;2023-06-22T04:24:11;21.60;32.40
1626;DHT22;806;48.770;9.156;2023-06-22T04:26:38;21.60;37.70
1626;DHT22;806;48.770;9.156;2023-06-22T04:29:07;21.50;36.20
1626;DHT22;806;48.770;9.156;2023-06-22T04:31:34;21.60;38.20
1626;DHT22;806;48.770;9.156;2023-06-22T04:34:04;21.60;35.90
1626;DHT22;806;48.770;9.156;2023-06-22T04:36:34;21.60;34.70
1626;DHT22;806;48.770;9.156;2023-06-22T04:39:04;21.50;34.10
1626;DHT22;806;48.770;9.156;2023-06-22T04:41:32;21.60;34.90
1626;DHT22;806;48.770;9.156;2023-06-22T04:44:08;21.70;37.50
1626;DHT22;806;48.770;9.156;2023-06-22T04:46:35;21.80;24.80
1626;DHT22;806;48.770;9.156;2023-06-22T04:49:05;21.80;19.90
1626;DHT22;806;48.770;9.156;2023-06-22T04:51:38;21.80;17.90
1626;DHT22;806;48.770;9.156;2023-06-22T04:54:06;21.80;17.10
1626;DHT22;806;48.770;9.156;2023-06-22T04:56:33;21.80;17.40
1626;DHT22;806;48.770;9.156;2023-06-22T04:59:00;21.80;20.20
1626;DHT22;806;48.770;9.156;2023-06-22T05:01:28;21.80;27.80
1626;DHT22;806;48.770;9.156;2023-06-22T05:03:56;21.80;26.70
1626;DHT22;806;48.770;9.156;2023-06-22T05:06:28;21.80;23.90
1626;DHT22;806;48.770;9.156;2023-06-22T05:08:56;21.80;25.90
1626;DHT22;806;48.770;9.156;2023-06-22T05:11:24;21.80;28.60
1626;DHT22;806;48.770;9.156;2023-06-22T05:13:51;21.70;24.60
1626;DHT22;806;48.770;9.156;2023-06-22T05:16:19;21.70;30.70
1626;DHT22;806;48.770;9.156;2023-06-22T05:18:50;21.80;27.10
1626;DHT22;806;48.770;9.156;2023-06-22T05:21:17;21.80;11.20
1626;DHT22;806;48.770;9.156;2023-06-22T05:23:46;21.80;10.60
1626;DHT22;806;48.770;9.156;2023-06-22T05:26:13;21.90;2.80
1626;DHT22;806;48.770;9.156;2023-06-22T05:28:40;22.00;3.90
1626;DHT22;806;48.770;9.156;2023-06-22T05:31:07;22.20;1.00
1626;DHT22;806;48.770;9.156;2023-06-22T05:33:34;22.20;1.00
1626;DHT22;806;48.770;9.156;2023-06-22T05:36:01;22.20;1.00
1626;DHT22;806;48.770;9.156;2023-06-22T05:38:28;22.30;1.00
1626;DHT22;806;48.770;9.156;2023-06-22T05:40:57;22.20;1.00
1626;DHT22;806;48.770;9.156;2023-06-22T05:43:24;22.20;1.00
1626;DHT22;806;48.770;9.156;2023-06-22T05:45:51;22.10;1.00
1626;DHT22;806;48.770;9.156;2023-06-22T05:48:18;22.20;1.00
1626;DHT22;806;48.770;9.156;2023-06-22T05:50:45;22.30;1.00
1626;DHT22;806;48.770;9.156;2023-06-22T05:53:12;22.60;1.00
1626;DHT22;806;48.770;9.156;2023-06-22T05:55:39;22.70;1.00
1626;DHT22;806;48.770;9.156;2023-06-22T05:58:07;22.80;1.00
1626;DHT22;806;48.770;9.156;2023-06-22T06:00:35;22.90;1.00
1626;DHT22;806;48.770;9.156;2023-06-22T06:03:02;22.90;1.00
1626;DHT22;806;48.770;9.156;2023-06-22T06:05:29;22.90;1.00
1626;DHT22;806;48.770;9.156;2023-06-22T06:07:56;22.90;1.00
1626;DHT22;806;48.770;9.156;2023-06-22T06:10:23;22.70;1.00
1626;DHT22;806;48.770;9.156;2023-06-22T06:12:51;22.70;1.00
1626;DHT22;806;48.770;9.156;2023-06-22T06:15:19;22.80;1.00
1626;DHT22;806;48.770;9.156;2023-06-22T06:17:47;22.90;1.00
1626;DHT22;806;48.770;9.156;2023-06-22T06:20:14;22.90;1.00
1626;DHT22;806;48.770;9.156;2023-06-22T06:22:41;22.90;1.00
1626;DHT22;806;48.770;9.156;2023-06-22T06:25:09;23.00;1.00
1626;DHT22;806;48.770;9.156;2023-06-22T06:27:42;22.90;1.00
1626;DHT22;806;48.770;9.156;2023-06-22T06:30:10;23.00;1.00
1626;DHT22;806;48.770;9.156;2023-06-22T06:32:39;23.10;1.00
1626;DHT22;806;48.770;9.156;2023-06-22T06:35:07;23.30;1.00
1626;DHT22;806;48.770;9.156;2023-06-22T06:37:37;23.40;1.00
1626;DHT22;806;48.770;9.156;2023-06-22T06:40:06;23.50;1.00
1626;DHT22;806;48.770;9.156;2023-06-22T06:42:34;23.70;99.90
1626;DHT22;806;48.770;9.156;2023-06-22T06:45:03;23.80;99.90
1626;DHT22;806;48.770;9.156;2023-06-22T06:47:31;24.00;99.90
1626;DHT22;806;48.770;9.156;2023-06-22T06:49:59;24.00;99.90
1626;DHT22;806;48.770;9.156;2023-06-22T06:52:26;24.20;99.90
1626;DHT22;806;48.770;9.156;2023-06-22T06:54:53;24.10;99.90
1626;DHT22;806;48.770;9.156;2023-06-22T06:57:20;24.20;99.90
1626;DHT22;806;48.770;9.156;2023-06-22T06:59:48;24.20;99.90
1626;DHT22;806;48.770;9.156;2023-06-22T07:02:15;24.20;99.90
1626;DHT22;806;48.770;9.156;2023-06-22T07:04:42;24.30;99.90
1626;DHT22;806;48.770;9.156;2023-06-22T07:07:10;24.30;99.90
1626;DHT22;806;48.770;9.156;2023-06-22T07:09:37;24.20;99.90
1626;DHT22;806;48.770;9.156;2023-06-22T07:12:06;24.20;99.90
1626;DHT22;806;48.770;9.156;2023-06-22T07:14:33;24.30;99.90
1626;DHT22;806;48.770;9.156;2023-06-22T07:17:00;24.30;99.90
1626;DHT22;806;48.770;9.156;2023-06-22T07:19:27;24.40;99.90
1626;DHT22;806;48.770;9.156;2023-06-22T07:21:54;24.60;99.90
1626;DHT22;806;48.770;9.156;2023-06-22T07:24:23;24.70;99.90
1626;DHT22;806;48.770;9.156;2023-06-22T07:26:51;24.70;99.90
1626;DHT22;806;48.770;9.156;2023-06-22T07:29:18;24.80;99.90
1626;DHT22;806;48.770;9.156;2023-06-22T07:31:46;24.80;99.90
1626;DHT22;806;48.770;9.156;2023-06-22T07:34:15;24.80;99.90
1626;DHT22;806;48.770;9.156;2023-06-22T07:36:43;24.90;99.90
1626;DHT22;806;48.770;9.156;2023-06-22T07:39:10;25.10;99.90
1626;DHT22;806;48.770;9.156;2023-06-22T07:41:39;25.20;99.90
1626;DHT22;806;48.770;9.156;2023-06-22T07:44:07;25.10;99.90
1626;DHT22;806;48.770;9.156;2023-06-22T07:46:34;25.20;99.90
1626;DHT22;806;48.770;9.156;2023-06-22T07:49:02;25.20;99.90
1626;DHT22;806;48.770;9.156;2023-06-22T07:51:29;25.30;99.90
1626;DHT22;806;48.770;9.156;2023-06-22T07:53:56;25.30;99.90
1626;DHT22;806;48.770;9.156;2023-06-22T07:56:23;25.40;99.90
1626;DHT22;806;48.770;9.156;2023-06-22T07:58:51;25.60;99.90
1626;DHT22;806;48.770;9.156;2023-06-22T08:01:19;25.70;99.90
1626;DHT22;806;48.770;9.156;2023-06-22T08:03:47;25.80;99.90
1626;DHT22;806;48.770;9.156;2023-06-22T08:06:14;26.00;99.90
1626;DHT22;806;48.770;9.156;2023-06-22T08:08:42;26.10;99.90
1626;DHT22;806;48.770;9.156;2023-06-22T08:11:09;26.00;99.90
1626;DHT22;806;48.770;9.156;2023-06-22T08:13:36;26.10;99.90
1626;DHT22;806;48.770;9.156;2023-06-22T08:16:05;26.10;99.90
1626;DHT22;806;48.770;9.156;2023-06-22T08:18:33;26.10;99.90
1626;DHT22;806;48.770;9.156;2023-06-22T08:21:00;26.40;99.90
1626;DHT22;806;48.770;9.156;2023-06-22T08:23:27;26.60;99.90
1626;DHT22;806;48.770;9.156;2023-06-22T08:25:54;26.80;99.90
1626;DHT22;806;48.770;9.156;2023-06-22T08:28:21;26.90;99.90
1626;DHT22;806;48.770;9.156;2023-06-22T08:30:48;26.90;99.90
1626;DHT22;806;48.770;9.156;2023-06-22T08:33:16;27.00;99.90
1626;DHT22;806;48.770;9.156;2023-06-22T08:35:43;27.10;99.90
1626;DHT22;806;48.770;9.156;2023-06-22T08:38:10;27.40;99.90
1626;DHT22;806;48.770;9.156;2023-06-22T08:40:41;27.40;99.90
1626;DHT22;806;48.770;9.156;2023-06-22T08:43:08;27.60;99.90
1626;DHT22;806;48.770;9.156;2023-06-22T08:45:35;27.80;99.90
1626;DHT22;806;48.770;9.156;2023-06-22T08:48:02;27.80;99.90
1626;DHT22;806;48.770;9.156;2023-06-22T08:50:30;27.90;99.90
1626;DHT22;806;48.770;9.156;2023-06-22T08:52:57;27.90;99.90
1626;DHT22;806;48.770;9.156;2023-06-22T08:55:24;27.80;99.90
1626;DHT22;806;48.770;9.156;2023-06-22T08:57:51;27.90;99.90
1626;DHT22;806;48.770;9.156;2023-06-22T09:00:19;27.90;99.90
1626;DHT22;806;48.770;9.156;2023-06-22T09:02:47;28.20;99.90
1626;DHT22;806;48.770;9.156;2023-06-22T09:05:14;28.20;99.90
1626;DHT22;806;48.770;9.156;2023-06-22T09:07:43;28.20;99.90
1626;DHT22;806;48.770;9.156;2023-06-22T09:10:10;28.40;99.90
1626;DHT22;806;48.770;9.156;2023-06-22T09:12:38;28.60;99.90
1626;DHT22;806;48.770;9.156;2023-06-22T09:15:06;28.60;99.90
1626;DHT22;806;48.770;9.156;2023-06-22T09:17:34;28.70;99.90
1626;DHT22;806;48.770;9.156;2023-06-22T09:20:03;28.70;99.90
1626;DHT22;806;48.770;9.156;2023-06-22T09:22:31;28.60;99.90
1626;DHT22;806;48.770;9.156;2023-06-22T09:25:00;28.50;99.90
1626;DHT22;806;48.770;9.156;2023-06-22T09:27:28;28.40;99.90
1626;DHT22;806;48.770;9.156;2023-06-22T09:29:56;28.50;99.90
1626;DHT22;806;48.770;9.156;2023-06-22T09:32:24;28.50;99.90
1626;DHT22;806;48.770;9.156;2023-06-22T09:34:51;28.60;99.90
1626;DHT22;806;48.770;9.156;2023-06-22T09:37:18;28.90;99.90
1626;DHT22;806;48.770;9.156;2023-06-22T09:39:45;29.20;99.90
1626;DHT22;806;48.770;9.156;2023-06-22T09:42:14;29.20;99.90
1626;DHT22;806;48.770;9.156;2023-06-22T09:44:41;29.20;99.90
1626;DHT22;806;48.770;9.156;2023-06-22T09:47:08;29.20;99.90
1626;DHT22;806;48.770;9.156;2023-06-22T09:49:38;29.20;99.90
1626;DHT22;806;48.770;9.156;2023-06-22T09:52:07;29.30;99.90
1626;DHT22;806;48.770;9.156;2023-06-22T09:54:34;29.30;99.90
1626;DHT22;806;48.770;9.156;2023-06-22T09:57:01;29.20;99.90
1626;DHT22;806;48.770;9.156;2023-06-22T09:59:30;29.40;99.90
1626;DHT22;806;48.770;9.156;2023-06-22T10:01:57;29.70;99.90
1626;DHT22;806;48.770;9.156;2023-06-22T10:04:24;29.80;99.90
1626;DHT22;806;48.770;9.156;2023-06-22T10:06:51;29.90;99.90
1626;DHT22;806;48.770;9.156;2023-06-22T10:09:18;30.20;99.90
1626;DHT22;806;48.770;9.156;2023-06-22T10:11:46;30.40;99.90
1626;DHT22;806;48.770;9.156;2023-06-22T10:14:13;30.50;99.90
1626;DHT22;806;48.770;9.156;2023-06-22T10:16:41;30.50;99.90
1626;DHT22;806;48.770;9.156;2023-06-22T10:19:08;30.50;99.90
1626;DHT22;806;48.770;9.156;2023-06-22T10:21:35;30.40;99.90
1626;DHT22;806;48.770;9.156;2023-06-22T10:24:03;30.70;99.90
1626;DHT22;806;48.770;9.156;2023-06-22T10:26:32;31.00;99.90
1626;DHT22;806;48.770;9.156;2023-06-22T10:28:59;31.30;99.90
1626;DHT22;806;48.770;9.156;2023-06-22T10:31:26;31.20;99.90
1626;DHT22;806;48.770;9.156;2023-06-22T10:33:55;31.10;99.90
1626;DHT22;806;48.770;9.156;2023-06-22T10:36:23;31.10;99.90
1626;DHT22;806;48.770;9.156;2023-06-22T10:38:50;31.40;99.90
1626;DHT22;806;48.770;9.156;2023-06-22T10:41:18;31.80;99.90
1626;DHT22;806;48.770;9.156;2023-06-22T10:43:45;32.20;99.90
1626;DHT22;806;48.770;9.156;2023-06-22T10:46:12;32.60;99.90
1626;DHT22;806;48.770;9.156;2023-06-22T10:48:39;32.30;99.90
1626;DHT22;806;48.770;9.156;2023-06-22T10:51:07;32.20;99.90
1626;DHT22;806;48.770;9.156;2023-06-22T10:53:34;32.50;99.90
1626;DHT22;806;48.770;9.156;2023-06-22T10:56:01;32.60;99.90
1626;DHT22;806;48.770;9.156;2023-06-22T10:58:29;32.40;99.90
1626;DHT22;806;48.770;9.156;2023-06-22T11:00:55;32.30;99.90
1626;DHT22;806;48.770;9.156;2023-06-22T11:03:23;32.40;99.90
1626;DHT22;806;48.770;9.156;2023-06-22T11:05:50;32.50;99.90
1626;DHT22;806;48.770;9.156;2023-06-22T11:08:18;32.30;99.90
1626;DHT22;806;48.770;9.156;2023-06-22T11:10:45;32.10;99.90
1626;DHT22;806;48.770;9.156;2023-06-22T11:13:12;32.00;99.90
1626;DHT22;806;48.770;9.156;2023-06-22T11:15:40;32.00;99.90
1626;DHT22;806;48.770;9.156;2023-06-22T11:18:07;31.90;99.90
1626;DHT22;806;48.770;9.156;2023-06-22T11:20:34;31.90;99.90
1626;DHT22;806;48.770;9.156;2023-06-22T11:23:04;31.60;99.90
1626;DHT22;806;48.770;9.156;2023-06-22T11:25:33;31.40;99.90
1626;DHT22;806;48.770;9.156;2023-06-22T11:28:02;31.50;99.90
1626;DHT22;806;48.770;9.156;2023-06-22T11:30:29;31.50;99.90
1626;DHT22;806;48.770;9.156;2023-06-22T11:32:56;31.70;99.90
1626;DHT22;806;48.770;9.156;2023-06-22T11:35:24;31.80;99.90
1626;DHT22;806;48.770;9.156;2023-06-22T11:37:51;31.80;99.90
1626;DHT22;806;48.770;9.156;2023-06-22T11:40:18;31.90;99.90
1626;DHT22;806;48.770;9.156;2023-06-22T11:42:47;32.10;99.90
1626;DHT22;806;48.770;9.156;2023-06-22T11:45:14;32.10;99.90
1626;DHT22;806;48.770;9.156;2023-06-22T11:47:42;32.10;99.90
1626;DHT22;806;48.770;9.156;2023-06-22T11:50:09;32.20;99.90
1626;DHT22;806;48.770;9.156;2023-06-22T11:52:36;32.30;99.90
1626;DHT22;806;48.770;9.156;2023-06-22T11:55:04;32.30;99.90
1626;DHT22;806;48.770;9.156;2023-06-22T11:57:33;32.10;99.90
1626;DHT22;806;48.770;9.156;2023-06-22T12:00:03;32.10;99.90
1626;DHT22;806;48.770;9.156;2023-06-22T12:02:39;32.10;99.90
1626;DHT22;806;48.770;9.156;2023-06-22T12:05:06;31.90;99.90
1626;DHT22;806;48.770;9.156;2023-06-22T12:07:34;31.70;99.90
1626;DHT22;806;48.770;9.156;2023-06-22T12:10:01;31.60;99.90
1626;DHT22;806;48.770;9.156;2023-06-22T12:12:28;31.60;99.90
1626;DHT22;806;48.770;9.156;2023-06-22T12:14:55;31.50;99.90
1626;DHT22;806;48.770;9.156;2023-06-22T12:17:24;31.50;99.90
1626;DHT22;806;48.770;9.156;2023-06-22T12:19:51;31.40;99.90
1626;DHT22;806;48.770;9.156;2023-06-22T12:22:18;31.60;99.90
1626;DHT22;806;48.770;9.156;2023-06-22T12:24:45;31.80;99.90
1626;DHT22;806;48.770;9.156;2023-06-22T12:27:12;32.10;99.90
1626;DHT22;806;48.770;9.156;2023-06-22T12:29:42;32.20;99.90
1626;DHT22;806;48.770;9.156;2023-06-22T12:32:09;32.10;99.90
1626;DHT22;806;48.770;9.156;2023-06-22T12:34:41;31.90;99.90
1626;DHT22;806;48.770;9.156;2023-06-22T12:37:08;31.80;99.90
1626;DHT22;806;48.770;9.156;2023-06-22T12:39:35;31.80;99.90
1626;DHT22;806;48.770;9.156;2023-06-22T12:42:02;31.40;99.90
1626;DHT22;806;48.770;9.156;2023-06-22T12:44:29;31.30;99.90
1626;DHT22;806;48.770;9.156;2023-06-22T12:46:56;31.20;99.90
1626;DHT22;806;48.770;9.156;2023-06-22T12:49:24;31.10;99.90
1626;DHT22;806;48.770;9.156;2023-06-22T12:51:52;31.20;99.90
1626;DHT22;806;48.770;9.156;2023-06-22T12:54:19;31.30;99.90
1626;DHT22;806;48.770;9.156;2023-06-22T12:56:46;31.40;99.90
1626;DHT22;806;48.770;9.156;2023-06-22T12:59:13;31.30;99.90
1626;DHT22;806;48.770;9.156;2023-06-22T13:01:40;31.10;99.90
1626;DHT22;806;48.770;9.156;2023-06-22T13:04:09;31.00;99.90
1626;DHT22;806;48.770;9.156;2023-06-22T13:06:36;31.00;99.90
1626;DHT22;806;48.770;9.156;2023-06-22T13:09:05;30.90;99.90
1626;DHT22;806;48.770;9.156;2023-06-22T13:11:32;30.80;99.90
1626;DHT22;806;48.770;9.156;2023-06-22T13:13:59;30.80;99.90
1626;DHT22;806;48.770;9.156;2023-06-22T13:16:26;30.70;99.90
1626;DHT22;806;48.770;9.156;2023-06-22T13:18:53;30.70;99.90
1626;DHT22;806;48.770;9.156;2023-06-22T13:21:20;30.60;99.90
1626;DHT22;806;48.770;9.156;2023-06-22T13:23:47;30.50;99.90
1626;DHT22;806;48.770;9.156;2023-06-22T13:26:15;30.60;99.90
1626;DHT22;806;48.770;9.156;2023-06-22T13:28:42;30.80;99.90
1626;DHT22;806;48.770;9.156;2023-06-22T13:31:09;31.00;99.90
1626;DHT22;806;48.770;9.156;2023-06-22T13:33:38;30.80;99.90
1626;DHT22;806;48.770;9.156;2023-06-22T13:36:06;31.00;99.90
1626;DHT22;806;48.770;9.156;2023-06-22T13:38:35;31.00;99.90
1626;DHT22;806;48.770;9.156;2023-06-22T13:41:04;31.30;99.90
1626;DHT22;806;48.770;9.156;2023-06-22T13:43:32;31.40;99.90
1626;DHT22;806;48.770;9.156;2023-06-22T13:45:59;31.40;99.90
1626;DHT22;806;48.770;9.156;2023-06-22T13:48:26;31.40;99.90
1626;DHT22;806;48.770;9.156;2023-06-22T13:50:54;31.40;99.90
1626;DHT22;806;48.770;9.156;2023-06-22T13:53:21;31.50;99.90
1626;DHT22;806;48.770;9.156;2023-06-22T13:55:48;31.40;99.90
1626;DHT22;806;48.770;9.156;2023-06-22T13:58:16;31.40;99.90
1626;DHT22;806;48.770;9.156;2023-06-22T14:00:46;31.30;99.90
1626;DHT22;806;48.770;9.156;2023-06-22T14:03:14;31.20;99.90
1626;DHT22;806;48.770;9.156;2023-06-22T14:05:42;31.20;99.90
1626;DHT22;806;48.770;9.156;2023-06-22T14:08:09;31.40;99.90
1626;DHT22;806;48.770;9.156;2023-06-22T14:10:36;31.60;99.90
1626;DHT22;806;48.770;9.156;2023-06-22T14:13:03;31.80;99.90
1626;DHT22;806;48.770;9.156;2023-06-22T14:15:31;32.10;99.90
1626;DHT22;806;48.770;9.156;2023-06-22T14:18:01;32.40;99.90
1626;DHT22;806;48.770;9.156;2023-06-22T14:20:29;32.90;99.90
1626;DHT22;806;48.770;9.156;2023-06-22T14:22:56;33.60;99.90
1626;DHT22;806;48.770;9.156;2023-06-22T14:25:23;33.60;99.90
1626;DHT22;806;48.770;9.156;2023-06-22T14:27:50;33.20;99.90
1626;DHT22;806;48.770;9.156;2023-06-22T14:30:17;33.20;99.90
1626;DHT22;806;48.770;9.156;2023-06-22T14:32:44;32.90;99.90
1626;DHT22;806;48.770;9.156;2023-06-22T14:35:13;32.80;99.90
1626;DHT22;806;48.770;9.156;2023-06-22T14:37:40;32.80;99.90
1626;DHT22;806;48.770;9.156;2023-06-22T14:40:07;32.70;98.40
1626;DHT22;806;48.770;9.156;2023-06-22T14:42:34;32.70;98.20
1626;DHT22;806;48.770;9.156;2023-06-22T14:45:01;33.00;96.80
1626;DHT22;806;48.770;9.156;2023-06-22T14:47:28;33.50;95.60
1626;DHT22;806;48.770;9.156;2023-06-22T14:49:55;33.80;93.50
1626;DHT22;806;48.770;9.156;2023-06-22T14:52:24;34.00;93.20
1626;DHT22;806;48.770;9.156;2023-06-22T14:54:51;33.50;89.70
1626;DHT22;806;48.770;9.156;2023-06-22T14:57:18;33.50;88.50
1626;DHT22;806;48.770;9.156;2023-06-22T14:59:45;33.50;88.60
1626;DHT22;806;48.770;9.156;2023-06-22T15:02:12;33.60;82.40
1626;DHT22;806;48.770;9.156;2023-06-22T15:04:39;33.80;81.20
1626;DHT22;806;48.770;9.156;2023-06-22T15:07:06;33.60;76.50
1626;DHT22;806;48.770;9.156;2023-06-22T15:09:35;33.50;74.20
1626;DHT22;806;48.770;9.156;2023-06-22T15:12:05;33.20;71.30
1626;DHT22;806;48.770;9.156;2023-06-22T15:14:37;33.20;70.00
1626;DHT22;806;48.770;9.156;2023-06-22T15:17:05;33.30;68.80
1626;DHT22;806;48.770;9.156;2023-06-22T15:19:34;33.30;68.00
1626;DHT22;806;48.770;9.156;2023-06-22T15:22:03;33.10;67.10
1626;DHT22;806;48.770;9.156;2023-06-22T15:24:30;33.20;66.30
1626;DHT22;806;48.770;9.156;2023-06-22T15:26:59;33.30;64.50
1626;DHT22;806;48.770;9.156;2023-06-22T15:29:26;33.40;64.30
1626;DHT22;806;48.770;9.156;2023-06-22T15:31:55;33.50;64.30
1626;DHT22;806;48.770;9.156;2023-06-22T15:34:22;33.40;62.30
1626;DHT22;806;48.770;9.156;2023-06-22T15:36:49;33.10;61.30
1626;DHT22;806;48.770;9.156;2023-06-22T15:39:16;33.10;59.90
1626;DHT22;806;48.770;9.156;2023-06-22T15:41:43;33.20;60.40
1626;DHT22;806;48.770;9.156;2023-06-22T15:44:12;33.20;59.50
1626;DHT22;806;48.770;9.156;2023-06-22T15:46:40;33.10;61.20
1626;DHT22;806;48.770;9.156;2023-06-22T15:49:07;33.30;60.40
1626;DHT22;806;48.770;9.156;2023-06-22T15:51:34;33.50;59.90
1626;DHT22;806;48.770;9.156;2023-06-22T15:54:01;33.50;59.40
1626;DHT22;806;48.770;9.156;2023-06-22T15:56:28;33.40;58.90
1626;DHT22;806;48.770;9.156;2023-06-22T15:58:55;33.30;59.10
1626;DHT22;806;48.770;9.156;2023-06-22T16:01:24;32.90;60.30
1626;DHT22;806;48.770;9.156;2023-06-22T16:03:51;32.80;60.50
1626;DHT22;806;48.770;9.156;2023-06-22T16:06:18;32.40;62.30
1626;DHT22;806;48.770;9.156;2023-06-22T16:08:45;32.30;61.90
1626;DHT22;806;48.770;9.156;2023-06-22T16:11:12;32.00;62.80
1626;DHT22;806;48.770;9.156;2023-06-22T16:13:39;31.90;62.90
1626;DHT22;806;48.770;9.156;2023-06-22T16:16:07;31.80;63.30
1626;DHT22;806;48.770;9.156;2023-06-22T16:18:35;31.50;63.50
1626;DHT22;806;48.770;9.156;2023-06-22T16:21:02;31.50;63.50
1626;DHT22;806;48.770;9.156;2023-06-22T16:23:30;31.40;63.60
1626;DHT22;806;48.770;9.156;2023-06-22T16:25:57;31.30;65.00